createdAt,value
2022-12-27T00:01:14.482Z,1.30
2022-12-27T00:03:42.124Z,0.50
2022-12-27T00:06:12.122Z,1.15
2022-12-27T00:08:38.955Z,0.98
2022-12-27T00:11:11.895Z,0.75
2022-12-27T00:13:39.249Z,0.93
2022-12-27T00:16:08.795Z,0.80
2022-12-27T00:18:36.532Z,0.75
2022-12-27T00:21:04.939Z,0.77
2022-12-27T00:23:35.168Z,0.77
2022-12-27T00:26:08.516Z,0.98
2022-12-27T00:28:36.119Z,0.57
2022-12-27T00:31:05.382Z,0.50
2022-12-27T00:33:33.847Z,0.98
2022-12-27T00:36:02.946Z,1.50
2022-12-27T00:38:31.005Z,0.93
2022-12-27T00:40:57.895Z,1.02
2022-12-27T00:43:24.795Z,0.90
2022-12-27T00:45:51.677Z,0.85
2022-12-27T00:48:18.531Z,0.85
2022-12-27T00:50:45.902Z,0.85
2022-12-27T00:53:13.248Z,0.80
2022-12-27T00:55:43.542Z,0.70
2022-12-27T00:58:10.812Z,2.70
2022-12-27T01:00:37.810Z,0.98
2022-12-27T01:03:04.769Z,1.27
2022-12-27T01:05:31.636Z,1.25
2022-12-27T01:07:58.580Z,0.77
2022-12-27T01:10:25.460Z,1.13
2022-12-27T01:12:52.294Z,1.05
2022-12-27T01:15:19.123Z,1.30
2022-12-27T01:17:46.073Z,1.00
2022-12-27T01:20:13.158Z,0.95
2022-12-27T01:22:39.989Z,0.95
2022-12-27T01:25:07.240Z,1.77
2022-12-27T01:27:34.080Z,0.98
2022-12-27T01:30:00.897Z,1.35
2022-12-27T01:32:27.672Z,1.10
2022-12-27T01:34:54.507Z,0.93
2022-12-27T01:37:21.299Z,1.10
2022-12-27T01:39:48.109Z,1.55
2022-12-27T01:42:38.206Z,1.38
2022-12-27T01:45:25.819Z,0.90
2022-12-27T01:47:55.470Z,1.02
2022-12-27T01:50:28.402Z,1.35
2022-12-27T01:53:21.594Z,1.90
2022-12-27T01:56:14.825Z,1.73
2022-12-27T01:58:41.625Z,1.55
2022-12-27T02:01:14.867Z,2.22
2022-12-27T02:03:51.937Z,1.48
2022-12-27T02:06:20.979Z,1.67
2022-12-27T02:09:00.235Z,1.77
2022-12-27T02:11:49.875Z,1.95
2022-12-27T02:14:27.813Z,1.77
2022-12-27T02:16:58.270Z,1.73
2022-12-27T02:19:56.727Z,2.13
2022-12-27T02:23:18.968Z,1.60
2022-12-27T02:26:29.470Z,1.15
2022-12-27T02:29:02.102Z,1.83
2022-12-27T02:31:56.535Z,1.23
2022-12-27T02:34:30.449Z,1.40
2022-12-27T02:37:04.197Z,1.88
2022-12-27T02:39:33.819Z,1.10
2022-12-27T02:42:20.309Z,1.60
2022-12-27T02:45:05.847Z,1.80
2022-12-27T02:47:52.182Z,1.90
2022-12-27T02:50:37.571Z,1.67
2022-12-27T02:53:18.644Z,1.33
2022-12-27T02:56:44.361Z,1.23
2022-12-27T02:59:20.666Z,1.60
2022-12-27T03:02:38.585Z,1.73
2022-12-27T03:05:05.575Z,1.42
2022-12-27T03:07:47.394Z,1.63
2022-12-27T03:10:35.990Z,1.73
2022-12-27T03:13:38.932Z,1.27
2022-12-27T03:16:23.853Z,1.98
2022-12-27T03:19:46.861Z,1.27
2022-12-27T03:22:34.793Z,1.25
2022-12-27T03:25:21.456Z,2.05
2022-12-27T03:28:09.353Z,1.40
2022-12-27T03:30:57.239Z,2.00
2022-12-27T03:33:25.939Z,1.83
2022-12-27T03:36:17.795Z,1.50
2022-12-27T03:38:51.420Z,1.30
2022-12-27T03:41:45.221Z,1.63
2022-12-27T03:44:24.862Z,1.50
2022-12-27T03:46:59.776Z,1.73
2022-12-27T03:49:38.578Z,1.58
2022-12-27T03:52:17.355Z,1.75
2022-12-27T03:54:46.803Z,2.58
2022-12-27T03:57:17.061Z,1.90
2022-12-27T03:59:44.040Z,2.05
2022-12-27T04:02:11.784Z,1.55
2022-12-27T04:04:38.712Z,1.45
2022-12-27T04:07:06.375Z,1.50
2022-12-27T04:09:52.211Z,1.20
2022-12-27T04:12:38.027Z,0.90
2022-12-27T04:15:23.310Z,1.88
2022-12-27T04:18:08.865Z,1.13
2022-12-27T04:20:54.254Z,1.25
2022-12-27T04:23:39.685Z,2.00
2022-12-27T04:26:25.646Z,1.90
2022-12-27T04:29:10.873Z,1.00
2022-12-27T04:31:56.765Z,1.65
2022-12-27T04:34:42.262Z,1.02
2022-12-27T04:37:19.954Z,1.42
2022-12-27T04:40:10.227Z,1.25
2022-12-27T04:42:55.506Z,0.95
2022-12-27T04:45:41.234Z,1.05
2022-12-27T04:48:34.651Z,0.93
2022-12-27T04:51:20.299Z,0.60
2022-12-27T04:54:05.828Z,0.60
2022-12-27T04:56:32.679Z,0.50
2022-12-27T04:59:17.986Z,1.40
2022-12-27T05:02:03.484Z,1.42
2022-12-27T05:04:35.373Z,1.30
2022-12-27T05:07:22.738Z,1.02
2022-12-27T05:10:08.516Z,1.20
2022-12-27T05:12:53.913Z,2.00
2022-12-27T05:15:20.740Z,0.90
2022-12-27T05:17:47.781Z,1.95
2022-12-27T05:20:14.609Z,1.63
2022-12-27T05:22:59.892Z,1.45
2022-12-27T05:25:35.697Z,1.48
2022-12-27T05:28:04.161Z,1.73
2022-12-27T05:30:33.902Z,1.70
2022-12-27T05:33:00.891Z,1.67
2022-12-27T05:35:28.611Z,2.33
2022-12-27T05:37:55.616Z,2.67
2022-12-27T05:40:23.902Z,1.98
2022-12-27T05:42:51.384Z,2.05
2022-12-27T05:45:19.266Z,2.08
2022-12-27T05:47:46.166Z,1.95
2022-12-27T05:50:12.975Z,1.70
2022-12-27T05:52:41.457Z,1.40
2022-12-27T05:55:08.830Z,2.05
2022-12-27T05:57:36.018Z,2.20
2022-12-27T06:00:05.084Z,1.42
2022-12-27T06:02:32.305Z,1.67
2022-12-27T06:04:59.309Z,1.23
2022-12-27T06:07:26.479Z,1.90
2022-12-27T06:09:53.245Z,0.85
2022-12-27T06:12:20.053Z,1.35
2022-12-27T06:14:46.898Z,1.58
2022-12-27T06:17:13.734Z,2.08
2022-12-27T06:19:40.699Z,1.77
2022-12-27T06:22:07.497Z,2.35
2022-12-27T06:24:34.354Z,1.23
2022-12-27T06:27:01.144Z,2.33
2022-12-27T06:29:27.990Z,0.93
2022-12-27T06:31:54.859Z,1.00
2022-12-27T06:34:21.701Z,1.15
2022-12-27T06:36:50.940Z,1.40
2022-12-27T06:39:18.773Z,1.40
2022-12-27T06:41:45.966Z,1.10
2022-12-27T06:44:13.431Z,1.48
2022-12-27T06:46:40.254Z,1.98
2022-12-27T06:49:07.060Z,1.95
2022-12-27T06:51:34.009Z,2.13
2022-12-27T06:54:00.865Z,1.35
2022-12-27T06:56:28.049Z,1.85
2022-12-27T06:58:55.095Z,1.42
2022-12-27T07:01:25.007Z,1.20
2022-12-27T07:03:54.132Z,1.65
2022-12-27T07:06:22.105Z,1.58
2022-12-27T07:08:50.657Z,1.65
2022-12-27T07:11:19.256Z,1.73
2022-12-27T07:13:51.724Z,1.83
2022-12-27T07:16:23.489Z,1.73
2022-12-27T07:18:50.425Z,1.27
2022-12-27T07:21:20.198Z,2.67
2022-12-27T07:23:47.555Z,1.95
2022-12-27T07:26:20.744Z,1.42
2022-12-27T07:28:48.099Z,1.20
2022-12-27T07:31:17.619Z,1.20
2022-12-27T07:33:44.754Z,2.13
2022-12-27T07:36:23.345Z,1.98
2022-12-27T07:38:50.191Z,2.05
2022-12-27T07:41:18.176Z,1.67
2022-12-27T07:43:45.568Z,1.92
2022-12-27T07:46:18.563Z,1.90
2022-12-27T07:48:46.027Z,1.25
2022-12-27T07:51:13.894Z,1.58
2022-12-27T07:53:41.039Z,2.13
2022-12-27T07:56:11.132Z,0.90
2022-12-27T07:58:43.726Z,1.50
2022-12-27T08:01:12.192Z,1.88
2022-12-27T08:03:40.554Z,1.90
2022-12-27T08:06:09.119Z,1.58
2022-12-27T08:08:42.588Z,1.27
2022-12-27T08:11:10.024Z,1.13
2022-12-27T08:13:37.206Z,1.40
2022-12-27T08:16:04.703Z,2.10
2022-12-27T08:18:34.611Z,1.20
2022-12-27T08:21:01.447Z,2.17
2022-12-27T08:23:28.476Z,1.40
2022-12-27T08:25:55.337Z,1.10
2022-12-27T08:28:22.173Z,1.25
2022-12-27T08:30:49.077Z,1.23
2022-12-27T08:33:16.297Z,1.70
2022-12-27T08:35:54.014Z,1.55
2022-12-27T08:38:21.416Z,1.27
2022-12-27T08:40:48.268Z,1.67
2022-12-27T08:43:15.181Z,1.95
2022-12-27T08:45:42.180Z,2.00
2022-12-27T08:48:09.565Z,2.13
2022-12-27T08:50:36.517Z,2.38
2022-12-27T08:53:05.027Z,2.05
2022-12-27T08:55:32.588Z,1.80
2022-12-27T08:58:01.227Z,1.60
2022-12-27T09:00:29.310Z,1.85
2022-12-27T09:02:56.539Z,1.63
2022-12-27T09:05:25.215Z,1.65
2022-12-27T09:07:52.652Z,1.58
2022-12-27T09:10:20.518Z,2.28
2022-12-27T09:12:47.480Z,2.25
2022-12-27T09:15:21.477Z,1.75
2022-12-27T09:17:48.934Z,2.33
2022-12-27T09:20:15.759Z,2.25
2022-12-27T09:22:42.694Z,1.42
2022-12-27T09:25:11.058Z,3.08
2022-12-27T09:27:38.579Z,2.97
2022-12-27T09:30:13.190Z,1.58
2022-12-27T09:32:40.153Z,2.33
2022-12-27T09:35:17.281Z,2.20
2022-12-27T09:40:16.417Z,1.88
2022-12-27T09:43:12.498Z,2.78
2022-12-27T09:45:51.611Z,2.08
2022-12-27T09:48:33.423Z,1.92
2022-12-27T09:51:26.545Z,2.33
2022-12-27T09:54:18.832Z,3.05
2022-12-27T09:57:18.460Z,2.13
2022-12-27T09:59:38.519Z,2.97
2022-12-27T10:02:23.303Z,1.80
2022-12-27T10:07:41.673Z,3.00
2022-12-27T10:10:42.290Z,2.60
2022-12-27T10:13:43.830Z,2.10
2022-12-27T10:16:28.833Z,2.28
2022-12-27T10:19:04.131Z,2.05
2022-12-27T10:21:37.834Z,1.67
2022-12-27T10:24:23.760Z,1.25
2022-12-27T10:26:54.591Z,2.75
2022-12-27T10:29:30.417Z,2.22
2022-12-27T10:31:57.361Z,2.45
2022-12-27T10:34:25.016Z,2.22
2022-12-27T10:36:53.222Z,1.75
2022-12-27T10:39:27.038Z,1.85
2022-12-27T10:42:18.515Z,1.95
2022-12-27T10:44:45.697Z,1.70
2022-12-27T10:47:13.278Z,1.98
2022-12-27T10:49:42.827Z,2.75
2022-12-27T10:52:17.226Z,1.73
2022-12-27T10:57:26.880Z,1.50
2022-12-27T11:00:23.130Z,2.28
2022-12-27T11:02:58.080Z,1.80
2022-12-27T11:05:27.862Z,1.67
2022-12-27T11:07:55.218Z,1.27
2022-12-27T11:10:25.606Z,1.40
2022-12-27T11:13:06.529Z,1.73
2022-12-27T11:15:41.092Z,2.75
2022-12-27T11:18:18.301Z,1.10
2022-12-27T11:20:48.488Z,1.50
2022-12-27T11:23:18.409Z,1.65
2022-12-27T11:25:58.775Z,1.10
2022-12-27T11:28:47.647Z,1.25
2022-12-27T11:31:20.644Z,0.88
2022-12-27T11:33:51.768Z,1.90
2022-12-27T11:36:53.277Z,0.90
2022-12-27T11:39:43.752Z,1.25
2022-12-27T11:42:39.088Z,1.50
2022-12-27T11:45:33.281Z,1.67
2022-12-27T11:48:16.667Z,1.90
2022-12-27T11:50:54.506Z,1.58
2022-12-27T11:53:54.256Z,0.98
2022-12-27T11:56:28.587Z,1.40
2022-12-27T11:59:25.181Z,1.05
2022-12-27T12:02:30.672Z,1.00
2022-12-27T12:08:02.825Z,1.60
2022-12-27T12:10:52.533Z,1.05
2022-12-27T12:13:43.613Z,0.88
2022-12-27T12:16:41.257Z,1.08
2022-12-27T12:19:31.324Z,1.15
2022-12-27T12:22:13.565Z,1.13
2022-12-27T12:25:33.232Z,0.80
2022-12-27T12:28:55.785Z,1.88
2022-12-27T12:31:37.634Z,2.17
2022-12-27T12:34:42.740Z,1.48
2022-12-27T12:37:17.573Z,1.75
2022-12-27T12:39:53.409Z,2.13
2022-12-27T12:42:22.382Z,1.80
2022-12-27T12:44:49.136Z,2.33
2022-12-27T12:47:49.423Z,2.03
2022-12-27T12:50:29.098Z,1.65
2022-12-27T12:53:32.918Z,2.80
2022-12-27T12:56:20.727Z,1.90
2022-12-27T12:58:56.682Z,1.90
2022-12-27T13:01:35.868Z,2.17
2022-12-27T13:04:27.621Z,1.52
2022-12-27T13:07:22.011Z,1.80
2022-12-27T13:09:55.829Z,2.10
2022-12-27T13:12:29.153Z,2.72
2022-12-27T13:15:17.001Z,2.90
2022-12-27T13:18:16.105Z,2.95
2022-12-27T13:21:11.007Z,2.42
2022-12-27T13:24:10.737Z,2.30
2022-12-27T13:27:03.766Z,3.30
2022-12-27T13:30:02.994Z,3.03
2022-12-27T13:32:44.918Z,2.53
2022-12-27T13:35:50.769Z,3.05
2022-12-27T13:38:48.856Z,3.17
2022-12-27T13:41:49.779Z,3.53
2022-12-27T13:44:35.325Z,3.28
2022-12-27T13:47:32.726Z,3.53
2022-12-27T13:50:21.210Z,4.30
2022-12-27T13:53:00.211Z,4.15
2022-12-27T13:55:35.965Z,3.58
2022-12-27T13:58:27.993Z,4.22
2022-12-27T14:01:03.638Z,3.97
2022-12-27T14:03:53.493Z,4.35
2022-12-27T14:06:59.035Z,4.55
2022-12-27T14:09:25.778Z,4.35
2022-12-27T14:12:31.643Z,4.85
2022-12-27T14:15:02.511Z,4.20
2022-12-27T14:17:56.225Z,4.13
2022-12-27T14:20:28.966Z,3.83
2022-12-27T14:23:24.864Z,5.57
2022-12-27T14:26:07.020Z,5.00
2022-12-27T14:29:16.527Z,5.63
2022-12-27T14:32:23.623Z,5.38
2022-12-27T14:35:15.109Z,4.32
2022-12-27T14:37:41.896Z,4.68
2022-12-27T14:40:32.838Z,5.68
2022-12-27T14:43:20.343Z,5.45
2022-12-27T14:46:13.580Z,5.65
2022-12-27T14:48:55.551Z,4.95
2022-12-27T14:51:59.221Z,4.43
2022-12-27T14:54:48.383Z,4.70
2022-12-27T14:57:21.077Z,4.47
2022-12-27T15:00:12.972Z,4.65
2022-12-27T15:02:57.914Z,5.50
2022-12-27T15:05:30.933Z,4.72
2022-12-27T15:08:06.794Z,4.55
2022-12-27T15:10:48.527Z,5.55
2022-12-27T15:13:26.566Z,5.25
2022-12-27T15:16:15.307Z,5.28
2022-12-27T15:19:08.931Z,5.22
2022-12-27T15:21:57.411Z,5.45
2022-12-27T15:25:06.125Z,5.22
2022-12-27T15:27:46.477Z,5.30
2022-12-27T15:30:46.629Z,5.47
2022-12-27T15:33:22.239Z,5.32
2022-12-27T15:36:15.602Z,4.15
2022-12-27T15:38:55.396Z,4.55
2022-12-27T15:41:54.071Z,5.70
2022-12-27T15:44:42.406Z,4.38
2022-12-27T15:47:38.455Z,4.95
2022-12-27T15:50:29.550Z,4.35
2022-12-27T15:53:23.270Z,4.15
2022-12-27T15:56:34.633Z,4.97
2022-12-27T15:59:39.090Z,5.03
2022-12-27T16:02:17.986Z,5.17
2022-12-27T16:04:49.141Z,3.97
2022-12-27T16:07:46.144Z,4.63
2022-12-27T16:10:36.191Z,4.70
2022-12-27T16:13:25.661Z,4.95
2022-12-27T16:16:10.466Z,5.28
2022-12-27T16:18:59.583Z,4.10
2022-12-27T16:21:37.740Z,4.35
2022-12-27T16:24:12.444Z,3.45
2022-12-27T16:26:50.631Z,3.92
2022-12-27T16:29:17.745Z,3.42
2022-12-27T16:31:52.101Z,3.03
2022-12-27T16:36:58.423Z,3.38
2022-12-27T16:39:40.003Z,3.45
2022-12-27T16:42:08.844Z,2.95
2022-12-27T16:45:22.540Z,2.90
2022-12-27T16:48:14.280Z,4.05
2022-12-27T16:50:45.460Z,2.67
2022-12-27T16:53:43.460Z,2.78
2022-12-27T16:56:37.000Z,2.78
2022-12-27T16:59:23.787Z,2.30
2022-12-27T17:01:50.837Z,2.88
2022-12-27T17:04:50.164Z,3.30
2022-12-27T17:07:56.132Z,2.72
2022-12-27T17:10:30.201Z,2.40
2022-12-27T17:13:21.038Z,3.17
2022-12-27T17:15:58.059Z,2.72
2022-12-27T17:18:46.503Z,2.97
2022-12-27T17:21:26.155Z,3.03
2022-12-27T17:24:01.091Z,2.63
2022-12-27T17:26:37.009Z,2.63
2022-12-27T17:29:29.829Z,2.70
2022-12-27T17:32:21.229Z,2.85
2022-12-27T17:35:02.798Z,2.83
2022-12-27T17:38:01.640Z,2.70
2022-12-27T17:41:02.028Z,2.58
2022-12-27T17:44:13.505Z,2.88
2022-12-27T17:46:57.026Z,2.58
2022-12-27T17:49:29.978Z,2.92
2022-12-27T17:52:16.879Z,2.70
2022-12-27T17:55:48.378Z,3.05
2022-12-27T17:58:16.905Z,2.65
2022-12-27T18:00:59.008Z,3.75
2022-12-27T18:03:32.679Z,3.13
2022-12-27T18:05:59.668Z,3.58
2022-12-27T18:08:29.528Z,3.38
2022-12-27T18:10:58.045Z,2.60
2022-12-27T18:13:27.476Z,3.83
2022-12-27T18:15:55.920Z,3.40
2022-12-27T18:18:33.001Z,2.72
2022-12-27T18:21:03.909Z,2.85
2022-12-27T18:23:40.630Z,3.55
2022-12-27T18:26:14.976Z,2.63
2022-12-27T18:31:32.060Z,2.90
2022-12-27T18:34:01.081Z,2.83
2022-12-27T18:36:33.723Z,2.50
2022-12-27T18:39:05.178Z,3.03
2022-12-27T18:41:43.035Z,2.33
2022-12-27T18:44:20.122Z,2.65
2022-12-27T18:46:53.709Z,2.10
2022-12-27T18:49:51.525Z,4.00
2022-12-27T18:52:25.809Z,3.33
2022-12-27T18:54:53.687Z,2.40
2022-12-27T18:57:38.751Z,2.10
2022-12-27T19:00:26.626Z,2.55
2022-12-27T19:03:11.336Z,1.85
2022-12-27T19:08:16.557Z,2.05
2022-12-27T19:10:50.194Z,2.22
2022-12-27T19:13:43.333Z,2.30
2022-12-27T19:16:22.902Z,2.70
2022-12-27T19:18:56.320Z,2.40
2022-12-27T19:21:44.766Z,2.17
2022-12-27T19:24:32.897Z,2.42
2022-12-27T19:27:13.982Z,1.83
2022-12-27T19:29:50.233Z,2.13
2022-12-27T19:32:36.633Z,1.63
2022-12-27T19:35:04.323Z,2.15
2022-12-27T19:37:33.366Z,1.60
2022-12-27T19:40:07.338Z,2.15
2022-12-27T19:42:34.993Z,2.00
2022-12-27T19:47:50.689Z,1.23
2022-12-27T19:50:24.291Z,2.78
2022-12-27T19:52:52.292Z,2.20
2022-12-27T19:55:25.715Z,1.52
2022-12-27T19:57:53.752Z,1.65
2022-12-27T20:00:35.604Z,1.73
2022-12-27T20:03:03.305Z,2.08
2022-12-27T20:06:13.952Z,1.90
2022-12-27T20:08:48.211Z,1.60
2022-12-27T20:11:18.789Z,1.55
2022-12-27T20:13:46.215Z,1.92
2022-12-27T20:16:15.539Z,1.65
2022-12-27T20:18:50.099Z,1.50
2022-12-27T20:21:19.507Z,2.47
2022-12-27T20:23:47.202Z,1.52
2022-12-27T20:26:41.876Z,1.70
2022-12-27T20:29:09.600Z,1.08
2022-12-27T20:31:43.882Z,1.60
2022-12-27T20:34:12.146Z,1.83
2022-12-27T20:36:38.953Z,1.58
2022-12-27T20:39:07.278Z,1.13
2022-12-27T20:41:34.702Z,1.52
2022-12-27T20:44:01.865Z,1.60
2022-12-27T20:47:19.667Z,1.15
2022-12-27T20:49:46.483Z,1.50
2022-12-27T20:52:13.403Z,1.67
2022-12-27T20:54:40.477Z,1.20
2022-12-27T20:57:07.607Z,1.80
2022-12-27T20:59:34.479Z,1.33
2022-12-27T21:02:01.478Z,1.27
2022-12-27T21:04:28.475Z,1.20
2022-12-27T21:06:55.462Z,1.50
2022-12-27T21:09:22.490Z,1.77
2022-12-27T21:11:55.806Z,1.17
2022-12-27T21:14:23.206Z,1.33
2022-12-27T21:16:50.159Z,1.48
2022-12-27T21:19:17.233Z,1.23
2022-12-27T21:21:44.968Z,1.60
2022-12-27T21:24:12.255Z,1.05
2022-12-27T21:26:56.072Z,1.33
2022-12-27T21:29:23.325Z,1.58
2022-12-27T21:31:50.484Z,1.30
2022-12-27T21:34:23.371Z,2.35
2022-12-27T21:36:53.501Z,2.08
2022-12-27T21:39:21.481Z,1.27
2022-12-27T21:41:48.389Z,1.80
2022-12-27T21:44:16.606Z,1.38
2022-12-27T21:46:43.821Z,1.00
2022-12-27T21:49:13.217Z,2.22
2022-12-27T21:51:42.165Z,1.08
2022-12-27T21:54:10.600Z,1.58
2022-12-27T21:56:37.982Z,1.27
2022-12-27T21:59:10.797Z,1.23
2022-12-27T22:01:50.206Z,1.63
2022-12-27T22:04:19.646Z,1.98
2022-12-27T22:06:47.341Z,2.38
2022-12-27T22:09:15.131Z,1.40
2022-12-27T22:11:42.074Z,2.03
2022-12-27T22:14:09.170Z,1.50
2022-12-27T22:16:38.512Z,1.73
2022-12-27T22:19:10.563Z,1.17
2022-12-27T22:21:39.495Z,1.25
2022-12-27T22:24:06.764Z,2.03
2022-12-27T22:26:37.514Z,1.38
2022-12-27T22:29:07.914Z,1.00
2022-12-27T22:31:37.571Z,1.20
2022-12-27T22:34:05.493Z,2.15
2022-12-27T22:36:33.099Z,1.05
2022-12-27T22:39:00.368Z,1.50
2022-12-27T22:41:35.266Z,1.38
2022-12-27T22:44:03.538Z,1.35
2022-12-27T22:46:51.132Z,1.25
2022-12-27T22:49:21.164Z,1.40
2022-12-27T22:51:48.109Z,1.92
2022-12-27T22:54:14.956Z,1.85
2022-12-27T22:56:42.396Z,2.20
2022-12-27T22:59:12.173Z,1.30
2022-12-27T23:01:40.433Z,1.00
2022-12-27T23:04:10.905Z,1.10
2022-12-27T23:06:39.107Z,1.40
2022-12-27T23:09:07.451Z,1.02
2022-12-27T23:11:37.051Z,1.45
2022-12-27T23:14:11.805Z,1.38
2022-12-27T23:16:41.115Z,1.95
2022-12-27T23:19:08.509Z,0.85
2022-12-27T23:21:35.811Z,0.93
2022-12-27T23:24:02.841Z,1.13
2022-12-27T23:26:29.684Z,1.58
2022-12-27T23:28:56.721Z,2.78
2022-12-27T23:31:24.855Z,1.00
2022-12-27T23:33:52.531Z,1.08
2022-12-27T23:36:20.181Z,1.27
2022-12-27T23:38:47.442Z,1.23
2022-12-27T23:41:25.291Z,1.40
2022-12-27T23:43:55.429Z,1.42
2022-12-27T23:46:30.409Z,1.30
2022-12-27T23:48:58.982Z,1.60
2022-12-27T23:51:26.677Z,1.95
2022-12-27T23:53:53.682Z,1.10
2022-12-27T23:56:32.135Z,1.40
2022-12-27T23:59:00.666Z,2.05
